• Join FlightAware (Why Join?)
  • Login
  • US Flag 
05:34AM EDT


 

Airport Tracker/Info


-or-


 

Live Flight TrackerFlight Track Log ✈ SWA1259 ✈ 03-Aug-2013 ✈ KMSY - KLAS

Flight Track Log - Related Links

Times and Time Zones

All times are in EDT time to prevent confusion due to time zone crossing. See the SWA1259 flight status page for this flight to view local times or setup timezone preferences in your user account.

Time Position Orientation Groundspeed Altitude Reporting Facility
EDT Latitude Longitude Course Direction KTS MPH feet Rate Location/Type
06:23PM 30.0172 -90.3050 317° Northwest 180 207 1,700  Level Houston Center
06:24PM 30.0617 -90.3436 323° Northwest 212 244 3,500 1,680 Climbing Houston Center
06:25PM 30.1031 -90.4036 309° West 227 261 5,300 2,460 Climbing Houston Center
06:26PM 30.1531 -90.4742 309° West 263 303 8,600 2,940 Climbing Houston Center
06:27PM 30.2208 -90.5633 311° West 295 339 11,400 2,760 Climbing Houston Center
06:28PM 30.2867 -90.6514 311° West 348 400 14,300 2,820 Climbing Houston Center
06:29PM 30.3564 -90.7403 312° West 365 420 17,200 2,460 Climbing Houston Center
06:30PM 30.4289 -90.8308 313° West 376 433 19,400 2,160 Climbing Houston Center
06:31PM 30.5017 -90.9264 311° West 390 449 21,700 2,160 Climbing Houston Center
06:32PM 30.5747 -91.0264 310° West 403 464 23,900 1,980 Climbing Houston Center
06:33PM 30.6489 -91.1314 309° West 418 481 25,800 1,680 Climbing Houston Center
06:34PM 30.7208 -91.2439 307° West 432 497 27,400 1,680 Climbing Houston Center
06:35PM 30.8036 -91.3847 304° West 446 513 29,300 1,560 Climbing Houston Center
06:36PM 30.8767 -91.5044 305° West 452 520 30,600 1,440 Climbing Houston Center
06:37PM 30.9508 -91.6275 305° West 461 531 32,300 1,560 Climbing Houston Center
06:38PM 31.0236 -91.7503 305° West 460 529 33,800 1,500 Climbing Houston Center
06:39PM 31.1158 -91.8500 317° Northwest 458 527 35,400 1,500 Climbing Houston Center
06:40PM 31.2150 -91.9428 321° Northwest 455 524 36,900 1,260 Climbing Houston Center
06:41PM 31.3169 -92.0403 321° Northwest 449 517 38,000 480 Climbing Houston Center
06:42PM 31.3931 -92.1558 308° West 455 524 38,000  Level Houston Center
06:43PM 31.4625 -92.2817 303° West 461 531 38,000  Level Houston Center
06:44PM 31.5319 -92.4061 303° West 459 528 38,000  Level Houston Center
06:45PM 31.6150 -92.5536 304° West 454 522 38,000  Level Houston Center
06:46PM 31.6797 -92.6761 302° West 447 514 38,000  Level Houston Center
06:47PM 31.7478 -92.7997 303° West 448 516 38,000  Level Houston Center
06:48PM 31.8153 -92.9231 303° West 451 519 38,000  Level Houston Center
06:49PM 31.8894 -93.0603 303° West 457 526 38,000  Level Houston Center
06:50PM 31.9572 -93.1858 302° West 458 527 38,000  Level Houston Center
06:52PM 32.0247 -93.3111 302° West 456 525 38,000  Level Houston Center
06:53PM 32.0931 -93.4361 303° West 455 524 38,000  Level Houston Center
06:53PM 32.1675 -93.5728 303° West 455 524 38,000  Level Fort Worth Center
06:54PM 32.2228 -93.6783 302° West 441 507 38,000  Level Fort Worth Center
06:55PM 32.2869 -93.8036 301° West 441 507 38,000  Level Fort Worth Center
06:56PM 32.3531 -93.9311 302° West 446 513 38,000  Level Fort Worth Center
06:57PM 32.4192 -94.0567 302° West 446 513 38,000  Level Fort Worth Center
06:58PM 32.4850 -94.1797 302° West 441 507 38,000  Level Fort Worth Center
06:59PM 32.5486 -94.3031 301° West 441 507 38,000  Level Fort Worth Center
07:00PM 32.6164 -94.4317 302° West 441 507 38,000  Level Fort Worth Center
07:01PM 32.6800 -94.5553 301° West 441 507 38,000  Level Fort Worth Center
07:02PM 32.7453 -94.6842 301° West 441 507 38,000  Level Fort Worth Center
07:03PM 32.8128 -94.8081 303° West 441 507 38,000  Level Fort Worth Center
07:04PM 32.8781 -94.9372 301° West 441 507 38,000  Level Fort Worth Center
07:05PM 32.9408 -95.0644 300° West 446 513 38,000  Level Fort Worth Center
07:06PM 33.0081 -95.1939 302° West 446 513 38,000  Level Fort Worth Center
07:07PM 33.0747 -95.3211 302° West 446 513 38,000  Level Fort Worth Center
07:08PM 33.1394 -95.4486 301° West 446 513 38,000  Level Fort Worth Center
07:09PM 33.2042 -95.5764 301° West 446 513 38,000  Level Fort Worth Center
07:10PM 33.2664 -95.6967 302° West 441 507 38,000  Level Fort Worth Center
07:11PM 33.3328 -95.8247 302° West 441 507 38,000  Level Fort Worth Center
07:12PM 33.3947 -95.9481 301° West 441 507 38,000  Level Fort Worth Center
07:13PM 33.4608 -96.0764 302° West 441 507 38,000  Level Fort Worth Center
07:14PM 33.5228 -96.2025 301° West 441 507 38,000  Level Fort Worth Center
07:15PM 33.5594 -96.3417 288° West 435 501 38,000  Level Fort Worth Center
07:16PM 33.5897 -96.4858 284° West 435 501 38,000  Level Fort Worth Center
07:17PM 33.6178 -96.6278 283° West 440 506 38,000  Level Fort Worth Center
07:18PM 33.6458 -96.7722 283° West 445 512 38,000  Level Fort Worth Center
07:19PM 33.6756 -96.9192 284° West 451 519 38,000  Level Fort Worth Center
07:20PM 33.7033 -97.0639 283° West 451 519 38,000  Level Fort Worth Center
07:21PM 33.7328 -97.2086 284° West 451 519 38,100 480 Climbing Fort Worth Center
07:22PM 33.7581 -97.3561 282° West 451 519 39,000 900 Climbing Fort Worth Center
07:23PM 33.7894 -97.5008 285° West 451 519 40,000 480 Climbing Fort Worth Center
07:24PM 33.8164 -97.6486 282° West 451 519 40,000  Level Fort Worth Center
07:25PM 33.8431 -97.7986 282° West 451 519 40,000  Level Fort Worth Center
07:26PM 33.8697 -97.9414 283° West 451 519 40,000  Level Fort Worth Center
07:27PM 33.8961 -98.0842 283° West 446 513 40,000  Level Fort Worth Center
07:28PM 33.9203 -98.2294 281° West 446 513 40,000  Level Fort Worth Center
07:29PM 33.9483 -98.3725 283° West 446 513 40,000  Level Fort Worth Center
07:30PM 33.9744 -98.5181 282° West 451 519 40,000  Level Fort Worth Center
07:31PM 33.9981 -98.6611 281° West 446 513 40,000  Level Fort Worth Center
07:32PM 34.0192 -98.8217 279° West 446 513 40,000  Level Fort Worth Center
07:33PM 34.0383 -98.9650 279° West 446 513 40,000  Level Fort Worth Center
07:34PM 34.0575 -99.1133 279° West 446 513 40,000  Level Fort Worth Center
07:35PM 34.0803 -99.2617 281° West 446 513 40,000  Level Fort Worth Center
07:36PM 34.0989 -99.4100 279° West 446 513 40,000  Level Fort Worth Center
07:37PM 34.1175 -99.5533 279° West 446 513 40,000  Level Fort Worth Center
07:38PM 34.1356 -99.7019 278° West 446 513 40,000  Level Fort Worth Center
07:39PM 34.1536 -99.8506 278° West 446 513 40,000  Level Fort Worth Center
07:40PM 34.1736 -99.9992 279° West 446 513 40,000  Level Fort Worth Center
07:41PM 34.1914 -100.1478 278° West 446 513 40,000  Level Fort Worth Center
07:42PM 34.2111 -100.2964 279° West 446 513 40,000  Level Fort Worth Center
07:43PM 34.2267 -100.4253 278° West 446 513 40,000  Level Fort Worth Center
07:44PM 34.2439 -100.5714 278° West 446 513 40,000  Level Fort Worth Center
07:45PM 34.2611 -100.7203 278° West 446 513 40,000  Level Fort Worth Center
07:46PM 34.2781 -100.8667 278° West 446 513 40,000  Level Fort Worth Center
07:47PM 34.2925 -101.0131 277° West 446 513 40,000  Level Fort Worth Center
07:48PM 34.3111 -101.1597 279° West 446 513 40,000  Level Fort Worth Center
07:49PM 34.3278 -101.3039 278° West 446 513 40,000  Level Fort Worth Center
07:50PM 34.3475 -101.4656 278° West 451 519 40,000  Level Fort Worth Center
07:51PM 34.3639 -101.6022 278° West 451 519 40,000  Level Fort Worth Center
07:53PM 34.3808 -101.7708 277° West 444 511 40,000  Level Albuquerque Center
07:54PM 34.3983 -101.9197 278° West 445 512 40,000  Level Albuquerque Center
07:55PM 34.4147 -102.0675 278° West 444 511 40,000  Level Albuquerque Center
07:56PM 34.4294 -102.2161 277° West 444 511 40,000  Level Albuquerque Center
07:57PM 34.4467 -102.3650 278° West 445 512 40,000  Level Albuquerque Center
07:58PM 34.4622 -102.5128 277° West 443 510 40,000  Level Albuquerque Center
07:59PM 34.4767 -102.6608 277° West 443 510 40,000  Level Albuquerque Center
08:00PM 34.4931 -102.8219 277° West 440 506 40,000  Level Albuquerque Center
08:01PM 34.5147 -102.9708 280° West 442 509 40,000  Level Albuquerque Center
08:02PM 34.5372 -103.1197 280° West 445 512 40,000  Level Albuquerque Center
08:03PM 34.5606 -103.2683 281° West 445 512 40,000  Level Albuquerque Center
08:04PM 34.5831 -103.4189 280° West 448 516 40,000  Level Albuquerque Center
08:05PM 34.6061 -103.5681 281° West 446 513 40,000  Level Albuquerque Center
08:06PM 34.6314 -103.7433 280° West 446 513 40,000  Level Albuquerque Center
08:07PM 34.6531 -103.8947 280° West 449 517 40,000  Level Albuquerque Center
08:08PM 34.6761 -104.0475 280° West 452 520 40,000  Level Albuquerque Center
08:09PM 34.6972 -104.1986 280° West 449 517 40,000  Level Albuquerque Center
08:10PM 34.7197 -104.3511 280° West 451 519 40,000  Level Albuquerque Center
08:11PM 34.7411 -104.5053 280° West 454 522 40,000  Level Albuquerque Center
08:12PM 34.7617 -104.6561 279° West 448 516 40,000  Level Albuquerque Center
08:13PM 34.7833 -104.8083 280° West 450 518 40,000  Level Albuquerque Center
08:14PM 34.7964 -104.9589 276° West 445 512 40,000  Level Albuquerque Center
08:15PM 34.8044 -105.1081 274° West 440 506 40,000  Level Albuquerque Center
08:16PM 34.8131 -105.2600 274° West 443 510 40,000  Level Albuquerque Center
08:17PM 34.8228 -105.4108 275° West 443 510 40,000  Level Albuquerque Center
08:18PM 34.8339 -105.5608 275° West 442 509 40,000  Level Albuquerque Center
08:19PM 34.8478 -105.7328 276° West 443 510 40,000  Level Albuquerque Center
08:20PM 34.8578 -105.8842 275° West 445 512 40,000  Level Albuquerque Center
08:21PM 34.8733 -106.0342 277° West 445 512 40,000  Level Albuquerque Center
08:22PM 34.8939 -106.1817 280° West 442 509 40,000  Level Albuquerque Center
08:23PM 34.9128 -106.3297 279° West 441 507 40,000  Level Albuquerque Center
08:24PM 34.9317 -106.4786 279° West 442 509 40,000  Level Albuquerque Center
08:25PM 34.9517 -106.6308 279° West 450 518 40,000  Level Albuquerque Center
08:26PM 34.9703 -106.7803 279° West 447 514 40,000  Level Albuquerque Center
08:27PM 34.9925 -106.9556 279° West 450 518 40,000  Level Albuquerque Center
08:28PM 35.0111 -107.1047 279° West 447 514 40,000  Level Albuquerque Center
08:29PM 35.0233 -107.2522 276° West 440 506 40,000  Level Albuquerque Center
08:30PM 35.0206 -107.4117 269° West 438 504 40,000  Level Albuquerque Center
08:32PM 35.0217 -107.5558 271° West 444 511 40,000  Level Albuquerque Center
08:33PM 35.0228 -107.7047 271° West 444 511 40,000  Level Albuquerque Center
08:34PM 35.0233 -107.8528 270° West 440 506 40,000  Level Albuquerque Center
08:35PM 35.0186 -108.0019 268° West 439 505 40,000  Level Albuquerque Center
08:36PM 35.0156 -108.1686 269° West 438 504 40,000  Level Albuquerque Center
08:37PM 35.0117 -108.3103 268° West 436 502 40,000  Level Albuquerque Center
08:38PM 35.0075 -108.4750 268° West 436 502 40,000  Level Albuquerque Center
08:39PM 35.0208 -108.6139 277° West 430 495 40,000  Level Albuquerque Center
08:40PM 35.0408 -108.7594 280° West 442 509 40,000  Level Albuquerque Center
08:41PM 35.0653 -108.9222 280° West 439 505 40,000  Level Albuquerque Center
08:42PM 35.0844 -109.0619 280° West 435 501 40,000  Level Albuquerque Center
08:43PM 35.1047 -109.2064 280° West 442 509 40,000  Level Albuquerque Center
08:44PM 35.1278 -109.3744 280° West 447 514 40,000  Level Albuquerque Center
08:45PM 35.1469 -109.5169 279° West 445 512 40,000  Level Albuquerque Center
08:46PM 35.1708 -109.6819 280° West 442 509 40,000  Level Albuquerque Center
08:47PM 35.1894 -109.8258 279° West 445 512 40,000  Level Albuquerque Center
08:48PM 35.2075 -109.9672 279° West 442 509 40,000  Level Albuquerque Center
08:49PM 35.2278 -110.1286 279° West 436 502 40,000  Level Albuquerque Center
08:50PM 35.2450 -110.2683 279° West 434 499 40,000  Level Albuquerque Center
08:51PM 35.2650 -110.4328 279° West 436 502 40,000  Level Albuquerque Center
08:52PM 35.2814 -110.5731 278° West 436 502 40,000 -180 Level Albuquerque Center
08:53PM 35.3006 -110.7139 280° West 437 503 39,700 -720 Descending Albuquerque Center
08:54PM 35.3214 -110.8781 279° West 437 503 38,600 -1,020 Descending Albuquerque Center
08:55PM 35.3394 -111.0189 279° West 438 504 37,700 -1,020 Descending Albuquerque Center
08:56PM 35.3581 -111.1822 278° West 435 501 36,600 -1,020 Descending Albuquerque Center
08:57PM 35.3761 -111.3242 279° West 438 504 35,700 -960 Descending Albuquerque Center
08:58PM 35.3969 -111.4828 279° West 451 519 34,700 -1,320 Descending Albuquerque Center
08:59PM 35.4147 -111.6342 278° West 454 522 33,100 -2,040 Descending Albuquerque Center
09:00PM 35.4317 -111.7836 278° West 449 517 30,500 -1,560 Descending Albuquerque Center
09:01PM 35.4481 -111.9286 278° West 439 505 30,000 -300 Descending Albuquerque Center
09:02PM 35.4650 -112.0725 278° West 433 498 30,000  Level Albuquerque Center
09:03PM 35.4814 -112.2169 278° West 432 497 30,000  Level Albuquerque Center
09:04PM 35.5014 -112.3911 278° West 434 499 30,000  Level Albuquerque Center
09:05PM 35.5178 -112.5358 278° West 433 498 30,000  Level Albuquerque Center
09:06PM 35.5344 -112.6789 278° West 430 495 30,000  Level Albuquerque Center
09:07PM 35.5506 -112.8233 278° West 432 497 30,000  Level Albuquerque Center
09:08PM 35.5658 -112.9669 277° West 435 501 30,000  Level Albuquerque Center
09:09PM 35.5831 -113.1375 277° West 430 495 30,000 -120 Level Albuquerque Center
09:10PM 35.5969 -113.2797 277° West 428 493 29,800 -1,380 Descending Albuquerque Center
09:12PM 35.6181 -113.4814 277° West 426 490 26,600 -2,280 Descending Los Angeles Center
09:13PM 35.6342 -113.6181 278° West 412 474 24,300 -2,280 Descending Los Angeles Center
09:14PM 35.6536 -113.7522 280° West 403 464 22,000 -2,460 Descending Los Angeles Center
09:15PM 35.6756 -113.9083 280° West 392 451 19,300 -2,400 Descending Los Angeles Center
09:16PM 35.6928 -114.0322 280° West 378 435 17,100 -2,040 Descending Los Angeles Center
09:17PM 35.7047 -114.1208 279° West 375 432 15,700 -2,160 Descending Los Angeles Center
09:17PM 35.7175 -114.1961 282° West 368 423 14,300 -2,340 Descending Los Angeles Center
09:18PM 35.7275 -114.2850 278° West 353 406 12,800 -1,320 Descending Los Angeles Center
09:19PM 35.7561 -114.3906 288° West 333 383 12,000 -960 Descending Los Angeles Center
09:20PM 35.8303 -114.4469 328° Northwest 318 366 10,900 -1,020 Descending Los Angeles Center
09:21PM 35.8919 -114.5206 316° Northwest 311 358 10,000 -1,020 Descending Los Angeles Center
09:22PM 35.9525 -114.5897 317° Northwest 299 344 8,900 -1,020 Descending Los Angeles Center
09:23PM 36.0125 -114.6592 317° Northwest 295 339 8,000 -540 Descending Los Angeles Center
09:24PM 36.0661 -114.7219 317° Northwest 273 314 7,800 -540 Descending Los Angeles Center
09:25PM 36.0708 -114.8025 274° West 251 289 7,000 -600 Descending Los Angeles Center
09:26PM 36.0725 -114.8731 272° West 228 262 6,600 -960 Descending Los Angeles Center
09:27PM 36.0722 -114.9367 270° West 205 236 5,100 -1,440 Descending Los Angeles Center
09:28PM 36.0728 -115.0144 271° West 194 223 3,700 -1,080 Descending Los Angeles Center
09:29PM 36.0725 -115.0708 270° West 181 208 2,900 -780 Descending Los Angeles Center
09:30PM 36.0722 -115.1169 270° West 154 177 2,200 -720 Descending Los Angeles Center
09:32PM 36.0667 -115.1500 270° West  Level FlightAware Approximate
09:39PM 36.0801 -115.1523 270° West  Level Estimated